createdAt,value
2019-01-20T00:00:51.797Z,5.57
2019-01-20T00:05:00.251Z,5.54
2019-01-20T00:09:10.747Z,5.65
2019-01-20T00:13:18.903Z,5.56
2019-01-20T00:17:30.375Z,5.51
2019-01-20T00:21:38.164Z,5.48
2019-01-20T00:25:45.888Z,5.34
2019-01-20T00:29:54.030Z,5.33
2019-01-20T00:34:02.138Z,5.40
2019-01-20T00:38:10.532Z,5.34
2019-01-20T00:42:19.184Z,5.30
2019-01-20T00:46:27.198Z,5.37
2019-01-20T00:50:35.106Z,5.35
2019-01-20T00:54:43.032Z,5.33
2019-01-20T00:58:51.065Z,5.46
2019-01-20T01:02:59.550Z,5.29
2019-01-20T01:07:09.822Z,5.32
2019-01-20T01:11:17.578Z,5.30
2019-01-20T01:15:25.519Z,5.41
2019-01-20T01:19:33.231Z,5.49
2019-01-20T01:23:41.367Z,5.88
2019-01-20T01:27:49.488Z,5.53
2019-01-20T01:31:57.704Z,5.46
2019-01-20T01:36:05.964Z,5.46
2019-01-20T01:40:15.028Z,5.50
2019-01-20T01:44:22.935Z,5.50
2019-01-20T01:48:32.014Z,5.54
2019-01-20T01:52:40.278Z,5.52
2019-01-20T01:56:48.207Z,5.57
2019-01-20T02:00:56.219Z,5.53
2019-01-20T02:05:04.955Z,5.53
2019-01-20T02:09:13.503Z,5.60
2019-01-20T02:13:21.222Z,5.61
2019-01-20T02:17:29.224Z,5.66
2019-01-20T02:21:37.383Z,5.63
2019-01-20T02:25:45.444Z,5.59
2019-01-20T02:29:53.466Z,5.57
2019-01-20T02:34:01.382Z,5.59
2019-01-20T02:38:09.389Z,5.62
2019-01-20T02:42:17.397Z,5.62
2019-01-20T02:46:25.447Z,5.62
2019-01-20T02:50:33.473Z,5.63
2019-01-20T02:54:41.847Z,5.63
2019-01-20T02:58:49.757Z,5.64
2019-01-20T03:02:57.774Z,5.66
2019-01-20T03:07:05.945Z,5.70
2019-01-20T03:11:13.980Z,5.82
2019-01-20T03:15:22.019Z,5.79
2019-01-20T03:19:29.772Z,5.79
2019-01-20T03:23:37.402Z,5.93
2019-01-20T03:27:45.910Z,5.83
2019-01-20T03:31:54.031Z,5.92
2019-01-20T03:36:01.834Z,5.89
2019-01-20T03:40:11.624Z,5.82
2019-01-20T03:44:19.530Z,5.83
2019-01-20T03:48:27.273Z,5.80
2019-01-20T03:52:35.009Z,5.88
2019-01-20T03:56:43.024Z,5.87
2019-01-20T04:00:51.138Z,5.82
2019-01-20T04:04:59.562Z,5.85
2019-01-20T04:09:08.886Z,5.93
2019-01-20T04:13:17.281Z,5.90
2019-01-20T04:17:25.297Z,5.90
2019-01-20T04:21:33.014Z,5.88
2019-01-20T04:25:40.639Z,5.89
2019-01-20T04:29:48.551Z,5.95
2019-01-20T04:33:57.015Z,5.91
2019-01-20T04:38:05.091Z,5.88
2019-01-20T04:42:14.130Z,5.88
2019-01-20T04:46:21.838Z,5.87
2019-01-20T04:50:30.079Z,5.92
2019-01-20T04:54:38.467Z,5.93
2019-01-20T04:58:46.834Z,5.91
2019-01-20T05:02:54.774Z,5.94
2019-01-20T05:07:02.493Z,5.93
2019-01-20T05:11:10.123Z,5.92
2019-01-20T05:15:19.851Z,5.90
2019-01-20T05:19:27.792Z,5.95
2019-01-20T05:23:35.845Z,6.00
2019-01-20T05:27:43.978Z,5.99
2019-01-20T05:31:51.901Z,6.04
2019-01-20T05:35:59.416Z,5.99
2019-01-20T05:40:08.638Z,6.00
2019-01-20T05:44:16.548Z,6.01
2019-01-20T05:48:24.571Z,6.03
2019-01-20T05:52:32.217Z,5.99
2019-01-20T05:56:40.412Z,5.99
2019-01-20T06:00:48.208Z,6.03
2019-01-20T06:04:55.924Z,6.02
2019-01-20T06:09:05.248Z,6.03
2019-01-20T06:13:13.068Z,6.00
2019-01-20T06:17:20.801Z,6.10
2019-01-20T06:21:28.739Z,6.08
2019-01-20T06:25:36.764Z,6.17
2019-01-20T06:29:44.570Z,6.82
2019-01-20T06:33:52.191Z,7.19
2019-01-20T06:38:00.693Z,6.92
2019-01-20T06:42:08.752Z,6.39
2019-01-20T06:46:16.476Z,6.28
2019-01-20T06:50:25.392Z,6.21
2019-01-20T06:54:33.214Z,6.22
2019-01-20T06:58:41.620Z,6.23
2019-01-20T07:02:50.059Z,6.22
2019-01-20T07:06:57.885Z,6.80
2019-01-20T07:11:05.946Z,6.95
2019-01-20T07:15:19.633Z,6.49
2019-01-20T07:19:28.166Z,6.34
2019-01-20T07:23:36.104Z,6.36
2019-01-20T07:27:44.209Z,6.38
2019-01-20T07:31:52.072Z,6.34
2019-01-20T07:36:00.094Z,6.35
2019-01-20T07:40:10.147Z,6.42
2019-01-20T07:44:18.069Z,6.48
2019-01-20T07:48:26.275Z,6.45
2019-01-20T07:52:34.804Z,6.52
2019-01-20T07:56:43.021Z,6.47
2019-01-20T08:00:51.119Z,6.52
2019-01-20T08:04:58.911Z,6.48
2019-01-20T08:09:08.763Z,6.49
2019-01-20T08:13:24.023Z,6.42
2019-01-20T08:17:26.241Z,6.45
2019-01-20T08:21:34.273Z,6.37
2019-01-20T08:25:42.712Z,6.47
2019-01-20T08:29:51.126Z,6.58
2019-01-20T08:33:59.160Z,6.51
2019-01-20T08:38:07.569Z,6.58
2019-01-20T08:42:15.826Z,6.55
2019-01-20T08:46:55.028Z,6.51
2019-01-20T08:51:03.042Z,6.50
2019-01-20T08:55:12.020Z,6.51
2019-01-20T08:59:20.194Z,6.47
2019-01-20T09:03:28.445Z,6.52
2019-01-20T09:07:36.156Z,6.55
2019-01-20T09:11:44.177Z,6.54
2019-01-20T09:15:53.598Z,6.58
2019-01-20T09:20:02.008Z,6.60
2019-01-20T09:24:10.445Z,6.58
2019-01-20T09:28:18.766Z,6.69
2019-01-20T09:32:26.706Z,6.66
2019-01-20T09:36:34.799Z,6.61
2019-01-20T09:40:42.766Z,6.65
2019-01-20T09:44:51.074Z,6.68
2019-01-20T09:48:59.212Z,6.75
2019-01-20T09:53:07.588Z,6.71
2019-01-20T09:57:15.577Z,6.76
2019-01-20T10:01:23.447Z,6.79
2019-01-20T10:05:31.196Z,6.83
2019-01-20T10:09:40.141Z,6.82
2019-01-20T10:13:54.609Z,6.81
2019-01-20T10:17:57.862Z,6.80
2019-01-20T10:22:06.106Z,6.85
2019-01-20T10:26:14.148Z,6.84
2019-01-20T10:30:24.993Z,6.84
2019-01-20T10:34:33.740Z,6.87
2019-01-20T10:38:41.755Z,6.86
2019-01-20T10:42:49.908Z,6.85
2019-01-20T10:46:57.900Z,6.86
2019-01-20T10:51:06.717Z,6.87
2019-01-20T10:55:14.744Z,6.91
2019-01-20T10:59:22.808Z,6.90
2019-01-20T11:03:30.859Z,7.19
2019-01-20T11:07:41.554Z,7.09
2019-01-20T11:11:51.393Z,7.12
2019-01-20T11:15:59.371Z,7.07
2019-01-20T11:20:10.954Z,7.14
2019-01-20T11:24:18.787Z,6.95
2019-01-20T11:28:26.526Z,6.96
2019-01-20T11:32:34.593Z,7.03
2019-01-20T11:36:42.347Z,7.01
2019-01-20T11:40:52.151Z,7.10
2019-01-20T11:44:59.693Z,7.02
2019-01-20T11:49:07.450Z,6.98
2019-01-20T11:53:15.524Z,7.04
2019-01-20T11:57:23.584Z,7.13
2019-01-20T12:01:32.282Z,7.03
2019-01-20T12:05:42.460Z,7.11
2019-01-20T12:09:52.677Z,7.12
2019-01-20T12:14:00.614Z,7.10
2019-01-20T12:18:08.612Z,7.18
2019-01-20T12:22:18.666Z,7.09
2019-01-20T12:26:26.590Z,7.13
2019-01-20T12:30:36.379Z,7.20
2019-01-20T12:34:44.505Z,7.27
2019-01-20T12:38:52.559Z,7.32
2019-01-20T12:43:00.846Z,7.15
2019-01-20T12:47:08.705Z,7.25
2019-01-20T12:51:16.757Z,7.31
2019-01-20T12:55:24.534Z,7.23
2019-01-20T12:59:32.275Z,7.22
2019-01-20T13:03:41.418Z,7.28
2019-01-20T13:07:49.480Z,7.23
2019-01-20T13:11:58.539Z,7.22
2019-01-20T13:16:08.585Z,7.17
2019-01-20T13:20:18.875Z,7.18
2019-01-20T13:24:26.631Z,7.13
2019-01-20T13:28:35.785Z,7.06
2019-01-20T13:32:44.127Z,7.13
2019-01-20T13:36:52.360Z,7.10
2019-01-20T13:41:07.036Z,7.11
2019-01-20T13:45:15.049Z,7.12
2019-01-20T13:49:23.114Z,7.11
2019-01-20T13:53:31.347Z,7.11
2019-01-20T13:57:39.906Z,7.08
2019-01-20T14:01:47.952Z,7.11
2019-01-20T14:05:55.883Z,7.11
2019-01-20T14:10:05.348Z,7.02
2019-01-20T14:14:14.330Z,7.05
2019-01-20T14:18:22.027Z,7.00
2019-01-20T14:22:32.867Z,6.99
2019-01-20T14:26:41.081Z,7.01
2019-01-20T14:30:48.754Z,6.99
2019-01-20T14:34:56.820Z,7.01
2019-01-20T14:39:08.341Z,7.16
2019-01-20T14:43:16.401Z,7.03
2019-01-20T14:47:24.727Z,7.08
2019-01-20T14:51:32.655Z,7.13
2019-01-20T14:55:40.547Z,7.02
2019-01-20T14:59:48.284Z,7.03
2019-01-20T15:03:55.951Z,6.95
2019-01-20T15:08:04.723Z,6.92
2019-01-20T15:12:13.112Z,6.92
2019-01-20T15:16:20.854Z,6.94
2019-01-20T15:20:28.600Z,6.94
2019-01-20T15:24:36.365Z,6.94
2019-01-20T15:28:44.420Z,6.90
2019-01-20T15:32:52.713Z,6.86
2019-01-20T15:37:00.727Z,7.01
2019-01-20T15:41:09.590Z,6.90
2019-01-20T15:45:18.617Z,6.99
2019-01-20T15:49:26.512Z,6.95
2019-01-20T15:53:34.888Z,7.00
2019-01-20T15:57:43.493Z,6.90
2019-01-20T16:01:51.982Z,6.91
2019-01-20T16:05:59.931Z,6.85
2019-01-20T16:10:09.439Z,6.92
2019-01-20T16:14:17.227Z,7.01
2019-01-20T16:18:25.310Z,6.87
2019-01-20T16:22:33.693Z,6.89
2019-01-20T16:26:42.454Z,6.91
2019-01-20T16:30:50.104Z,6.87
2019-01-20T16:34:57.907Z,6.91
2019-01-20T16:39:08.499Z,6.84
2019-01-20T16:43:16.736Z,7.01
2019-01-20T16:47:25.036Z,6.85
2019-01-20T16:51:34.754Z,6.80
2019-01-20T16:55:43.227Z,6.77
2019-01-20T16:59:51.707Z,6.74
2019-01-20T17:03:59.940Z,6.73
2019-01-20T17:08:08.037Z,6.72
2019-01-20T17:12:15.883Z,6.85
2019-01-20T17:16:24.393Z,6.84
2019-01-20T17:20:33.049Z,6.77
2019-01-20T17:24:40.890Z,6.96
2019-01-20T17:28:49.730Z,6.80
2019-01-20T17:32:57.403Z,6.91
2019-01-20T17:37:05.211Z,6.79
2019-01-20T17:41:13.616Z,6.82
2019-01-20T17:45:26.689Z,6.80
2019-01-20T17:49:34.308Z,7.10
2019-01-20T17:53:42.234Z,6.91
2019-01-20T17:57:50.251Z,7.07
2019-01-20T18:01:58.280Z,6.99
2019-01-20T18:06:06.438Z,7.01
2019-01-20T18:10:15.683Z,7.03
2019-01-20T18:14:23.805Z,7.00
2019-01-20T18:18:32.524Z,6.98
2019-01-20T18:22:41.042Z,7.10
2019-01-20T18:26:51.114Z,7.27
2019-01-20T18:31:01.277Z,7.14
2019-01-20T18:35:10.023Z,7.06
2019-01-20T18:39:18.077Z,7.37
2019-01-20T18:43:27.876Z,7.13
2019-01-20T18:47:35.864Z,7.38
2019-01-20T18:51:43.733Z,7.32
2019-01-20T18:55:51.855Z,7.51
2019-01-20T18:59:59.537Z,7.45
2019-01-20T19:04:07.615Z,7.54
2019-01-20T19:08:16.696Z,7.33
2019-01-20T19:12:28.313Z,7.10
2019-01-20T19:16:35.745Z,7.45
2019-01-20T19:20:43.283Z,7.46
2019-01-20T19:24:51.701Z,7.24
2019-01-20T19:29:03.084Z,7.51
2019-01-20T19:33:09.406Z,7.27
2019-01-20T19:37:17.175Z,7.23
2019-01-20T19:41:25.262Z,7.42
2019-01-20T19:45:35.266Z,7.26
2019-01-20T19:49:43.368Z,7.25
2019-01-20T19:53:51.481Z,7.42
2019-01-20T19:57:59.166Z,7.47
2019-01-20T20:02:07.133Z,7.34
2019-01-20T20:06:15.178Z,7.16
2019-01-20T20:10:24.791Z,7.33
2019-01-20T20:14:32.341Z,7.28
2019-01-20T20:18:42.193Z,7.21
2019-01-20T20:22:50.566Z,7.26
2019-01-20T20:26:58.670Z,7.33
2019-01-20T20:31:07.725Z,7.38
2019-01-20T20:35:17.433Z,7.47
2019-01-20T20:39:25.933Z,7.45
2019-01-20T20:43:33.554Z,7.40
2019-01-20T20:47:41.642Z,7.38
2019-01-20T20:51:49.713Z,7.26
2019-01-20T20:55:58.839Z,7.06
2019-01-20T21:00:12.354Z,7.03
2019-01-20T21:04:20.157Z,6.97
2019-01-20T21:08:27.902Z,6.95
2019-01-20T21:12:35.785Z,7.24
2019-01-20T21:16:43.813Z,7.19
2019-01-20T21:20:52.718Z,7.14
2019-01-20T21:25:01.026Z,7.08
2019-01-20T21:29:09.042Z,7.14
2019-01-20T21:33:17.088Z,7.28
2019-01-20T21:37:25.125Z,7.52
2019-01-20T21:41:33.152Z,7.23
2019-01-20T21:45:41.304Z,7.45
2019-01-20T21:49:49.129Z,7.53
2019-01-20T21:53:57.088Z,7.43
2019-01-20T21:58:05.531Z,7.56
2019-01-20T22:02:13.555Z,7.82
2019-01-20T22:06:21.443Z,7.82
2019-01-20T22:10:29.365Z,7.60
2019-01-20T22:14:37.183Z,7.36
2019-01-20T22:18:45.205Z,7.39
2019-01-20T22:22:53.935Z,7.58
2019-01-20T22:27:01.858Z,7.65
2019-01-20T22:31:09.598Z,7.62
2019-01-20T22:35:17.743Z,7.43
2019-01-20T22:39:26.473Z,7.46
2019-01-20T22:43:34.213Z,7.79
2019-01-20T22:47:42.362Z,7.72
2019-01-20T22:51:50.382Z,7.57
2019-01-20T22:55:57.997Z,7.37
2019-01-20T23:00:15.054Z,7.45
2019-01-20T23:04:22.762Z,7.59
2019-01-20T23:08:31.351Z,7.78
2019-01-20T23:12:39.452Z,7.87
2019-01-20T23:16:47.168Z,7.87
2019-01-20T23:20:54.986Z,7.85
2019-01-20T23:25:03.127Z,7.78
2019-01-20T23:29:10.898Z,7.59
2019-01-20T23:33:18.933Z,7.65
2019-01-20T23:37:27.004Z,7.52
2019-01-20T23:41:34.921Z,7.67
2019-01-20T23:45:42.538Z,7.65
2019-01-20T23:49:50.602Z,7.63
2019-01-20T23:53:58.325Z,7.53
2019-01-20T23:58:06.396Z,7.31
